Providence, UT (84332)

9:39 AM MDT on August 29, 2014 (GMT -0600)
River Heights | Change Station
CLOSE
Current Station
Personal Weather Station
Location: Logan, UT
Elevation: 4528 ft
Nearby Weather Stations

Elev 4528 ft 41.72 °N, 111.82 °W | Updated 9 minutes ago

Clear
Clear
61.9 °F
Feels Like 61.9 °F
N
0.9
Wind Variable Wind from SSE

Today
High -- | Low -- °F
--% Chance of Precip.
Yesterday
High -- | Low -- °F
Precip. -- in
6:50 AM 8:05 PM
Waxing Crescent, 15% visible
Pressure 29.98 in
Visibility 10.0 miles
Clouds Few 12000 ft
Dew Point 50 °F
Humidity 66%
Rainfall 0.00 in
Snow Depth 0 in , 0 in
UV 0 out of 12
Pollen 8.10 out of 12
Ozone Good
PM2.5 Good
Flu Activity Not available.
METAR KLGU 291251Z AUTO 01005KT 10SM FEW120 11/09 A3010 RMK AO2 SLP151 T01060089

More Conditions Fewer Conditions

Pressure 29.98 in
Visibility 10.0 miles
Clouds Few 12000 ft
Dew Point 50 °F
Humidity 66%
Rainfall 0.00 in
Snow Depth 0 in , 0 in
UV 0 out of 12
Pollen 8.10 out of 12
Ozone Good
PM2.5 Good
Flu Activity Not available.
METAR KLGU 291251Z AUTO 01005KT 10SM FEW120 11/09 A3010 RMK AO2 SLP151 T01060089

More Conditions Fewer Conditions

10-Day Weather Forecast

Almanac

Astronomy

Aug. 29, 2014 Rise Set
Actual Time 6:50 AM MDT 8:05 PM MDT
Civil Twilight 6:21 AM MDT 8:33 PM MDT
Nautical Twilight 5:46 AM MDT 9:08 PM MDT
Astronomical Twilight 5:10 AM MDT 9:44 PM MDT
Moon 10:47 AM MDT 10:00 PM MDT
Length of Visible Light 14h 12m
Length of Day
13h 15m
Tomorrow will be 2m 40s shorter.
Waxing Crescent, 15% of the Moon is Illuminated
Today
Waxing Crescent
Sep 2
First Quarter
Sep 8
Full
Sep 15
Last Quarter
Sep 24
New

Today's Extremes

State Highs State Lows

Community

WunderPhotos

Upload Photos

1,748,265 photos uploaded!

Nearby

Air Quality

  Air Quality AQ Index Pollutant
Yesterday Good
OZONE
Yesterday Good
PM2.5
Current Good
PM2.5
Current Good
OZONE

Snow Depth

Station Depth Elevation
Temple Fork 0 in 7406 ft
Tony Grove Lake 0 in 8400 ft
Little Bear 0 in 6550 ft
Ben Lomond Trail 2 in 6000 ft
Ben Lomond Peak 0 in 8000 ft

Earthquake Activity

City Distance Mag. Time & Date
No recent earthquake activity has been reported nearby.
Minimum magnitude displayed is 2.5.

Coastal Water Temperatures

Place Temperature
No Stations Reporting

Nearby Weather Stations